sensor_id;sensor_type;location;lat;lon;timestamp;pressure;altitude;pressure_sealevel;temperature;humidity
73316;BME280;61545;53.726;-0.444;2023-04-02T00:04:02;1016.6;;;5.8;100.0
73316;BME280;61545;53.726;-0.444;2023-04-02T00:08:35;1016.7;;;5.8;100.0
73316;BME280;61545;53.726;-0.444;2023-04-02T00:13:32;1016.8;;;5.7;100.0
73316;BME280;61545;53.726;-0.444;2023-04-02T00:18:31;1016.8;;;5.7;100.0
73316;BME280;61545;53.726;-0.444;2023-04-02T00:23:31;1016.9;;;5.7;100.0
73316;BME280;61545;53.726;-0.444;2023-04-02T00:28:31;1017.0;;;5.6;100.0
73316;BME280;61545;53.726;-0.444;2023-04-02T00:33:31;1017.0;;;5.6;100.0
73316;BME280;61545;53.726;-0.444;2023-04-02T00:38:32;1017.1;;;5.7;100.0
73316;BME280;61545;53.726;-0.444;2023-04-02T00:43:33;1017.2;;;5.5;100.0
73316;BME280;61545;53.726;-0.444;2023-04-02T00:48:38;1017.2;;;5.5;100.0
73316;BME280;61545;53.726;-0.444;2023-04-02T00:53:31;1017.3;;;5.6;100.0
73316;BME280;61545;53.726;-0.444;2023-04-02T00:58:32;1017.4;;;5.5;100.0
73316;BME280;61545;53.726;-0.444;2023-04-02T01:03:31;1017.4;;;5.5;100.0
73316;BME280;61545;53.726;-0.444;2023-04-02T01:08:39;1017.5;;;5.6;100.0
73316;BME280;61545;53.726;-0.444;2023-04-02T01:13:34;1017.5;;;5.5;100.0
73316;BME280;61545;53.726;-0.444;2023-04-02T01:18:37;1017.6;;;5.5;100.0
73316;BME280;61545;53.726;-0.444;2023-04-02T01:23:33;1017.6;;;5.5;100.0
73316;BME280;61545;53.726;-0.444;2023-04-02T01:28:32;1017.7;;;5.4;100.0
73316;BME280;61545;53.726;-0.444;2023-04-02T01:33:32;1017.8;;;5.5;100.0
73316;BME280;61545;53.726;-0.444;2023-04-02T01:38:33;1017.8;;;5.4;100.0
73316;BME280;61545;53.726;-0.444;2023-04-02T01:43:32;1017.9;;;unknown;100.0
73316;BME280;61545;53.726;-0.444;2023-04-02T01:48:31;1018.0;;;5.4;100.0
73316;BME280;61545;53.726;-0.444;2023-04-02T01:53:31;1018.1;;;5.3;100.0
73316;BME280;61545;53.726;-0.444;2023-04-02T01:58:31;1018.1;;;5.3;100.0
73316;BME280;61545;53.726;-0.444;2023-04-02T02:03:31;1018.2;;;5.3;100.0
73316;BME280;61545;53.726;-0.444;2023-04-02T02:08:36;1018.3;;;5.3;100.0
73316;BME280;61545;53.726;-0.444;2023-04-02T02:13:31;1018.4;;;5.3;100.0
73316;BME280;61545;53.726;-0.444;2023-04-02T02:18:31;1018.5;;;unknown;100.0
73316;BME280;61545;53.726;-0.444;2023-04-02T02:23:31;1018.5;;;5.3;100.0
73316;BME280;61545;53.726;-0.444;2023-04-02T02:28:32;1018.5;;;5.2;100.0
73316;BME280;61545;53.726;-0.444;2023-04-02T02:33:32;1018.6;;;5.3;100.0
73316;BME280;61545;53.726;-0.444;2023-04-02T02:38:38;1018.7;;;5.3;100.0
73316;BME280;61545;53.726;-0.444;2023-04-02T02:43:31;1018.8;;;5.2;100.0
73316;BME280;61545;53.726;-0.444;2023-04-02T02:48:33;1018.8;;;5.2;100.0
73316;BME280;61545;53.726;-0.444;2023-04-02T02:53:31;1018.9;;;5.3;100.0
73316;BME280;61545;53.726;-0.444;2023-04-02T02:58:31;1019.0;;;5.3;100.0
73316;BME280;61545;53.726;-0.444;2023-04-02T03:03:31;1019.1;;;5.2;100.0
73316;BME280;61545;53.726;-0.444;2023-04-02T03:08:32;1019.2;;;5.2;100.0
73316;BME280;61545;53.726;-0.444;2023-04-02T03:13:31;1019.3;;;5.2;100.0
73316;BME280;61545;53.726;-0.444;2023-04-02T03:18:36;1019.3;;;5.2;100.0
73316;BME280;61545;53.726;-0.444;2023-04-02T03:23:31;1019.4;;;5.2;100.0
73316;BME280;61545;53.726;-0.444;2023-04-02T03:28:32;1019.5;;;5.2;100.0
73316;BME280;61545;53.726;-0.444;2023-04-02T03:33:32;1019.6;;;5.2;100.0
73316;BME280;61545;53.726;-0.444;2023-04-02T03:38:31;1019.6;;;5.2;100.0
73316;BME280;61545;53.726;-0.444;2023-04-02T03:43:33;1019.8;;;5.2;100.0
73316;BME280;61545;53.726;-0.444;2023-04-02T03:48:33;1019.8;;;5.2;100.0
73316;BME280;61545;53.726;-0.444;2023-04-02T03:53:31;1019.9;;;5.3;100.0
73316;BME280;61545;53.726;-0.444;2023-04-02T03:58:33;1020.0;;;5.2;100.0
73316;BME280;61545;53.726;-0.444;2023-04-02T04:03:36;1020.0;;;5.2;100.0
73316;BME280;61545;53.726;-0.444;2023-04-02T04:08:33;1020.0;;;5.1;100.0
73316;BME280;61545;53.726;-0.444;2023-04-02T04:13:34;1020.0;;;5.2;100.0
73316;BME280;61545;53.726;-0.444;2023-04-02T04:18:32;1020.1;;;5.2;100.0
73316;BME280;61545;53.726;-0.444;2023-04-02T04:23:33;1020.1;;;5.2;100.0
73316;BME280;61545;53.726;-0.444;2023-04-02T04:28:33;1020.1;;;5.2;100.0
73316;BME280;61545;53.726;-0.444;2023-04-02T04:33:33;1020.2;;;5.1;100.0
73316;BME280;61545;53.726;-0.444;2023-04-02T04:38:31;1020.2;;;5.0;100.0
73316;BME280;61545;53.726;-0.444;2023-04-02T04:43:36;1020.3;;;5.1;100.0
73316;BME280;61545;53.726;-0.444;2023-04-02T04:48:33;1020.4;;;5.1;100.0
73316;BME280;61545;53.726;-0.444;2023-04-02T04:53:31;1020.5;;;5.0;100.0
73316;BME280;61545;53.726;-0.444;2023-04-02T04:58:32;1020.6;;;5.0;100.0
73316;BME280;61545;53.726;-0.444;2023-04-02T05:03:33;1020.6;;;5.0;100.0
73316;BME280;61545;53.726;-0.444;2023-04-02T05:08:32;1020.8;;;5.1;100.0
73316;BME280;61545;53.726;-0.444;2023-04-02T05:13:32;1020.9;;;5.0;100.0
73316;BME280;61545;53.726;-0.444;2023-04-02T05:18:31;1021.0;;;5.0;100.0
73316;BME280;61545;53.726;-0.444;2023-04-02T05:23:34;1021.0;;;5.1;100.0
73316;BME280;61545;53.726;-0.444;2023-04-02T05:28:33;1021.1;;;5.0;100.0
73316;BME280;61545;53.726;-0.444;2023-04-02T05:33:32;1021.2;;;5.0;100.0
73316;BME280;61545;53.726;-0.444;2023-04-02T05:38:32;1021.4;;;5.0;100.0
73316;BME280;61545;53.726;-0.444;2023-04-02T05:43:32;1021.4;;;5.0;100.0
73316;BME280;61545;53.726;-0.444;2023-04-02T05:48:32;1021.4;;;4.9;100.0
73316;BME280;61545;53.726;-0.444;2023-04-02T05:53:32;1021.5;;;4.8;100.0
73316;BME280;61545;53.726;-0.444;2023-04-02T05:58:33;1021.7;;;4.9;100.0
73316;BME280;61545;53.726;-0.444;2023-04-02T06:03:37;1021.7;;;4.9;100.0
73316;BME280;61545;53.726;-0.444;2023-04-02T06:08:32;1021.8;;;5.0;100.0
73316;BME280;61545;53.726;-0.444;2023-04-02T06:13:31;1021.8;;;5.0;100.0
73316;BME280;61545;53.726;-0.444;2023-04-02T06:18:31;1021.9;;;4.9;100.0
73316;BME280;61545;53.726;-0.444;2023-04-02T06:23:32;1022.0;;;5.3;100.0
73316;BME280;61545;53.726;-0.444;2023-04-02T06:28:35;1022.1;;;5.7;100.0
73316;BME280;61545;53.726;-0.444;2023-04-02T06:33:31;1022.1;;;5.4;100.0
73316;BME280;61545;53.726;-0.444;2023-04-02T06:38:31;1022.2;;;5.2;100.0
73316;BME280;61545;53.726;-0.444;2023-04-02T06:43:32;1022.2;;;5.2;100.0
73316;BME280;61545;53.726;-0.444;2023-04-02T06:48:31;1022.2;;;5.2;100.0
73316;BME280;61545;53.726;-0.444;2023-04-02T06:53:32;1022.3;;;5.2;100.0
73316;BME280;61545;53.726;-0.444;2023-04-02T06:58:31;1022.4;;;5.5;100.0
73316;BME280;61545;53.726;-0.444;2023-04-02T07:03:31;1022.4;;;6.0;100.0
73316;BME280;61545;53.726;-0.444;2023-04-02T07:08:31;1022.5;;;6.7;100.0
73316;BME280;61545;53.726;-0.444;2023-04-02T07:13:31;1022.6;;;6.2;100.0
73316;BME280;61545;53.726;-0.444;2023-04-02T07:18:32;1022.6;;;6.6;100.0
73316;BME280;61545;53.726;-0.444;2023-04-02T07:23:31;1022.7;;;6.2;100.0
73316;BME280;61545;53.726;-0.444;2023-04-02T07:28:31;1022.7;;;5.9;100.0
73316;BME280;61545;53.726;-0.444;2023-04-02T07:33:31;1022.7;;;6.0;100.0
73316;BME280;61545;53.726;-0.444;2023-04-02T07:38:31;1022.8;;;6.3;100.0
73316;BME280;61545;53.726;-0.444;2023-04-02T07:43:31;1022.8;;;7.2;100.0
73316;BME280;61545;53.726;-0.444;2023-04-02T07:48:31;1022.9;;;9.0;100.0
73316;BME280;61545;53.726;-0.444;2023-04-02T07:53:32;1023.0;;;10.0;100.0
73316;BME280;61545;53.726;-0.444;2023-04-02T07:58:31;1023.0;;;9.5;100.0
73316;BME280;61545;53.726;-0.444;2023-04-02T08:03:31;1023.0;;;9.5;100.0
73316;BME280;61545;53.726;-0.444;2023-04-02T08:08:31;1023.1;;;unknown;100.0
73316;BME280;61545;53.726;-0.444;2023-04-02T08:13:31;1023.1;;;7.2;100.0
73316;BME280;61545;53.726;-0.444;2023-04-02T08:18:31;1023.1;;;6.8;100.0
73316;BME280;61545;53.726;-0.444;2023-04-02T08:23:31;1023.1;;;8.1;100.0
73316;BME280;61545;53.726;-0.444;2023-04-02T08:28:31;1023.1;;;8.6;100.0
73316;BME280;61545;53.726;-0.444;2023-04-02T08:33:31;1023.3;;;8.7;100.0
73316;BME280;61545;53.726;-0.444;2023-04-02T08:38:31;1023.4;;;9.2;100.0
73316;BME280;61545;53.726;-0.444;2023-04-02T08:43:40;1023.5;;;9.3;100.0
73316;BME280;61545;53.726;-0.444;2023-04-02T08:48:32;1023.6;;;8.7;100.0
73316;BME280;61545;53.726;-0.444;2023-04-02T08:53:32;1023.7;;;10.1;100.0
73316;BME280;61545;53.726;-0.444;2023-04-02T08:58:38;1023.7;;;9.2;100.0
73316;BME280;61545;53.726;-0.444;2023-04-02T09:03:34;1023.7;;;10.1;100.0
73316;BME280;61545;53.726;-0.444;2023-04-02T09:08:31;1023.7;;;10.9;100.0
73316;BME280;61545;53.726;-0.444;2023-04-02T09:13:32;1023.7;;;10.0;100.0
73316;BME280;61545;53.726;-0.444;2023-04-02T09:18:31;1023.8;;;9.1;100.0
73316;BME280;61545;53.726;-0.444;2023-04-02T09:23:31;1023.9;;;10.0;100.0
73316;BME280;61545;53.726;-0.444;2023-04-02T09:28:31;1024.0;;;9.5;100.0
73316;BME280;61545;53.726;-0.444;2023-04-02T09:33:48;1024.1;;;9.9;100.0
73316;BME280;61545;53.726;-0.444;2023-04-02T09:38:31;1024.2;;;10.7;100.0
73316;BME280;61545;53.726;-0.444;2023-04-02T09:43:31;1024.2;;;9.9;100.0
73316;BME280;61545;53.726;-0.444;2023-04-02T09:48:32;1024.1;;;10.0;100.0
73316;BME280;61545;53.726;-0.444;2023-04-02T09:53:33;1024.1;;;10.4;100.0
73316;BME280;61545;53.726;-0.444;2023-04-02T09:58:31;1024.2;;;9.7;100.0
73316;BME280;61545;53.726;-0.444;2023-04-02T10:03:31;1024.2;;;9.3;100.0
73316;BME280;61545;53.726;-0.444;2023-04-02T10:08:31;1024.3;;;9.0;100.0
73316;BME280;61545;53.726;-0.444;2023-04-02T10:13:34;1024.4;;;9.7;100.0
73316;BME280;61545;53.726;-0.444;2023-04-02T10:18:37;1024.4;;;9.4;100.0
73316;BME280;61545;53.726;-0.444;2023-04-02T10:23:31;1024.6;;;10.5;100.0
73316;BME280;61545;53.726;-0.444;2023-04-02T10:28:41;1024.5;;;9.8;100.0
73316;BME280;61545;53.726;-0.444;2023-04-02T10:33:32;1024.7;;;10.7;100.0
73316;BME280;61545;53.726;-0.444;2023-04-02T10:38:39;1024.8;;;9.0;100.0
73316;BME280;61545;53.726;-0.444;2023-04-02T10:43:45;1024.9;;;9.0;100.0
73316;BME280;61545;53.726;-0.444;2023-04-02T10:48:32;1025.0;;;9.0;100.0
73316;BME280;61545;53.726;-0.444;2023-04-02T10:53:32;1025.0;;;9.9;100.0
73316;BME280;61545;53.726;-0.444;2023-04-02T10:58:32;1025.0;;;10.7;100.0
73316;BME280;61545;53.726;-0.444;2023-04-02T11:03:34;1025.2;;;9.4;100.0
73316;BME280;61545;53.726;-0.444;2023-04-02T11:08:38;1025.2;;;8.9;100.0
73316;BME280;61545;53.726;-0.444;2023-04-02T11:13:32;1025.3;;;8.2;100.0
73316;BME280;61545;53.726;-0.444;2023-04-02T11:18:32;1025.4;;;8.7;100.0
73316;BME280;61545;53.726;-0.444;2023-04-02T11:23:33;1025.4;;;10.2;100.0
73316;BME280;61545;53.726;-0.444;2023-04-02T11:28:31;1025.4;;;9.2;100.0
73316;BME280;61545;53.726;-0.444;2023-04-02T11:33:37;1025.4;;;9.0;100.0
73316;BME280;61545;53.726;-0.444;2023-04-02T11:38:49;1025.4;;;9.2;100.0
73316;BME280;61545;53.726;-0.444;2023-04-02T11:43:48;1025.5;;;9.4;100.0
73316;BME280;61545;53.726;-0.444;2023-04-02T11:48:31;1025.5;;;10.4;100.0
73316;BME280;61545;53.726;-0.444;2023-04-02T11:53:32;1025.5;;;10.0;100.0
73316;BME280;61545;53.726;-0.444;2023-04-02T11:58:39;1025.7;;;10.5;100.0
73316;BME280;61545;53.726;-0.444;2023-04-02T12:03:41;1025.6;;;9.9;100.0
73316;BME280;61545;53.726;-0.444;2023-04-02T12:08:36;1025.6;;;10.1;100.0
73316;BME280;61545;53.726;-0.444;2023-04-02T12:13:48;1025.6;;;10.5;100.0
73316;BME280;61545;53.726;-0.444;2023-04-02T12:18:31;1025.7;;;9.7;100.0
73316;BME280;61545;53.726;-0.444;2023-04-02T12:23:32;1025.8;;;9.8;100.0
73316;BME280;61545;53.726;-0.444;2023-04-02T12:28:31;1025.8;;;9.4;100.0
73316;BME280;61545;53.726;-0.444;2023-04-02T12:33:32;1025.9;;;9.7;100.0
73316;BME280;61545;53.726;-0.444;2023-04-02T12:38:32;1025.9;;;9.7;100.0
73316;BME280;61545;53.726;-0.444;2023-04-02T12:43:32;1025.9;;;9.3;100.0
73316;BME280;61545;53.726;-0.444;2023-04-02T12:48:31;1025.9;;;9.8;100.0
73316;BME280;61545;53.726;-0.444;2023-04-02T12:53:34;1026.0;;;10.0;100.0
73316;BME280;61545;53.726;-0.444;2023-04-02T12:58:33;1026.0;;;9.6;100.0
73316;BME280;61545;53.726;-0.444;2023-04-02T13:03:31;1026.1;;;9.7;100.0
73316;BME280;61545;53.726;-0.444;2023-04-02T13:08:37;1026.1;;;8.9;100.0
73316;BME280;61545;53.726;-0.444;2023-04-02T13:13:33;1026.2;;;9.1;100.0
73316;BME280;61545;53.726;-0.444;2023-04-02T13:18:34;1026.1;;;9.9;100.0
73316;BME280;61545;53.726;-0.444;2023-04-02T13:23:33;1026.2;;;10.1;100.0
73316;BME280;61545;53.726;-0.444;2023-04-02T13:28:31;1026.2;;;9.9;100.0
73316;BME280;61545;53.726;-0.444;2023-04-02T13:33:31;1026.2;;;10.2;100.0
73316;BME280;61545;53.726;-0.444;2023-04-02T13:38:31;1026.3;;;8.7;100.0
73316;BME280;61545;53.726;-0.444;2023-04-02T13:43:31;1026.2;;;9.6;100.0
73316;BME280;61545;53.726;-0.444;2023-04-02T13:48:31;1026.4;;;8.5;100.0
73316;BME280;61545;53.726;-0.444;2023-04-02T13:53:31;1026.4;;;8.5;100.0
73316;BME280;61545;53.726;-0.444;2023-04-02T13:58:31;1026.3;;;8.7;100.0
73316;BME280;61545;53.726;-0.444;2023-04-02T14:03:31;1026.4;;;9.9;100.0
73316;BME280;61545;53.726;-0.444;2023-04-02T14:08:38;1026.4;;;8.8;100.0
73316;BME280;61545;53.726;-0.444;2023-04-02T14:13:40;1026.3;;;9.0;100.0
73316;BME280;61545;53.726;-0.444;2023-04-02T14:18:39;1026.4;;;10.2;100.0
73316;BME280;61545;53.726;-0.444;2023-04-02T14:23:39;1026.3;;;9.0;100.0
73316;BME280;61545;53.726;-0.444;2023-04-02T14:28:35;1026.3;;;9.1;100.0
73316;BME280;61545;53.726;-0.444;2023-04-02T14:33:34;1026.3;;;9.2;100.0
73316;BME280;61545;53.726;-0.444;2023-04-02T14:38:33;1026.4;;;9.3;100.0
73316;BME280;61545;53.726;-0.444;2023-04-02T14:43:34;1026.4;;;9.1;100.0
73316;BME280;61545;53.726;-0.444;2023-04-02T14:48:38;1026.5;;;8.7;100.0
73316;BME280;61545;53.726;-0.444;2023-04-02T14:53:33;1026.5;;;8.0;100.0
73316;BME280;61545;53.726;-0.444;2023-04-02T14:58:32;1026.3;;;9.1;100.0
73316;BME280;61545;53.726;-0.444;2023-04-02T15:03:32;1026.3;;;8.7;100.0
73316;BME280;61545;53.726;-0.444;2023-04-02T15:08:32;1026.3;;;9.2;100.0
73316;BME280;61545;53.726;-0.444;2023-04-02T15:13:35;1026.4;;;8.5;100.0
73316;BME280;61545;53.726;-0.444;2023-04-02T15:18:31;1026.4;;;8.8;100.0
73316;BME280;61545;53.726;-0.444;2023-04-02T15:23:36;1026.4;;;8.6;100.0
73316;BME280;61545;53.726;-0.444;2023-04-02T15:28:33;1026.4;;;8.7;100.0
73316;BME280;61545;53.726;-0.444;2023-04-02T15:33:37;1026.4;;;8.6;100.0
73316;BME280;61545;53.726;-0.444;2023-04-02T15:38:33;1026.3;;;8.4;100.0
73316;BME280;61545;53.726;-0.444;2023-04-02T15:43:35;1026.5;;;7.7;100.0
73316;BME280;61545;53.726;-0.444;2023-04-02T15:48:53;1026.4;;;8.2;100.0
73316;BME280;61545;53.726;-0.444;2023-04-02T15:53:35;1026.4;;;8.3;100.0
73316;BME280;61545;53.726;-0.444;2023-04-02T15:58:39;1026.5;;;8.0;100.0
73316;BME280;61545;53.726;-0.444;2023-04-02T16:03:42;1026.4;;;7.7;100.0
73316;BME280;61545;53.726;-0.444;2023-04-02T16:08:38;1026.5;;;7.8;100.0
73316;BME280;61545;53.726;-0.444;2023-04-02T16:13:32;1026.6;;;7.9;100.0
73316;BME280;61545;53.726;-0.444;2023-04-02T16:18:37;1026.5;;;8.0;100.0
73316;BME280;61545;53.726;-0.444;2023-04-02T16:23:33;1026.6;;;7.9;100.0
73316;BME280;61545;53.726;-0.444;2023-04-02T16:28:32;1026.6;;;7.8;100.0
73316;BME280;61545;53.726;-0.444;2023-04-02T16:33:35;1026.6;;;7.5;100.0
73316;BME280;61545;53.726;-0.444;2023-04-02T16:38:41;1026.7;;;7.5;100.0
73316;BME280;61545;53.726;-0.444;2023-04-02T16:43:33;1026.8;;;7.3;100.0
73316;BME280;61545;53.726;-0.444;2023-04-02T16:48:36;1026.8;;;7.5;100.0
73316;BME280;61545;53.726;-0.444;2023-04-02T16:53:34;1026.9;;;7.3;100.0
73316;BME280;61545;53.726;-0.444;2023-04-02T16:58:36;1026.9;;;7.3;100.0
73316;BME280;61545;53.726;-0.444;2023-04-02T17:03:43;1027.1;;;7.0;100.0
73316;BME280;61545;53.726;-0.444;2023-04-02T17:08:34;1027.1;;;6.9;100.0
73316;BME280;61545;53.726;-0.444;2023-04-02T17:13:35;1027.2;;;6.8;100.0
73316;BME280;61545;53.726;-0.444;2023-04-02T17:18:32;1027.3;;;6.5;100.0
73316;BME280;61545;53.726;-0.444;2023-04-02T17:23:34;1027.3;;;6.5;100.0
73316;BME280;61545;53.726;-0.444;2023-04-02T17:28:31;1027.4;;;6.6;100.0
73316;BME280;61545;53.726;-0.444;2023-04-02T17:33:31;1027.5;;;6.7;100.0
73316;BME280;61545;53.726;-0.444;2023-04-02T17:38:33;1027.5;;;6.5;100.0
73316;BME280;61545;53.726;-0.444;2023-04-02T17:43:35;1027.6;;;6.3;100.0
73316;BME280;61545;53.726;-0.444;2023-04-02T17:48:33;1027.6;;;6.3;100.0
73316;BME280;61545;53.726;-0.444;2023-04-02T17:53:42;1027.7;;;6.4;100.0
73316;BME280;61545;53.726;-0.444;2023-04-02T17:58:48;1027.6;;;6.2;100.0
73316;BME280;61545;53.726;-0.444;2023-04-02T18:03:40;1027.5;;;6.0;100.0
73316;BME280;61545;53.726;-0.444;2023-04-02T18:08:34;1027.6;;;6.0;100.0
73316;BME280;61545;53.726;-0.444;2023-04-02T18:13:32;1027.6;;;6.0;100.0
73316;BME280;61545;53.726;-0.444;2023-04-02T18:18:39;1027.6;;;5.7;100.0
73316;BME280;61545;53.726;-0.444;2023-04-02T18:23:36;1027.8;;;5.9;100.0
73316;BME280;61545;53.726;-0.444;2023-04-02T18:28:37;1027.8;;;5.7;100.0
73316;BME280;61545;53.726;-0.444;2023-04-02T18:33:37;1027.9;;;5.6;100.0
73316;BME280;61545;53.726;-0.444;2023-04-02T18:38:35;1028.0;;;5.5;100.0
73316;BME280;61545;53.726;-0.444;2023-04-02T18:43:38;1028.1;;;5.4;100.0
73316;BME280;61545;53.726;-0.444;2023-04-02T18:48:38;1028.1;;;5.3;100.0
73316;BME280;61545;53.726;-0.444;2023-04-02T18:53:31;1028.2;;;5.3;100.0
73316;BME280;61545;53.726;-0.444;2023-04-02T18:58:34;1028.3;;;5.4;100.0
73316;BME280;61545;53.726;-0.444;2023-04-02T19:03:34;1028.2;;;5.2;100.0
73316;BME280;61545;53.726;-0.444;2023-04-02T19:08:33;1028.3;;;5.4;100.0
73316;BME280;61545;53.726;-0.444;2023-04-02T19:13:31;1028.4;;;5.5;100.0
73316;BME280;61545;53.726;-0.444;2023-04-02T19:18:37;1028.5;;;5.3;100.0
73316;BME280;61545;53.726;-0.444;2023-04-02T19:23:39;1028.6;;;5.2;100.0
73316;BME280;61545;53.726;-0.444;2023-04-02T19:28:32;1028.6;;;5.2;100.0
73316;BME280;61545;53.726;-0.444;2023-04-02T19:33:37;1028.6;;;5.0;100.0
73316;BME280;61545;53.726;-0.444;2023-04-02T19:38:42;1028.6;;;5.2;100.0
73316;BME280;61545;53.726;-0.444;2023-04-02T19:43:31;1028.6;;;4.8;100.0
73316;BME280;61545;53.726;-0.444;2023-04-02T19:48:35;1028.7;;;5.0;100.0
73316;BME280;61545;53.726;-0.444;2023-04-02T19:53:31;1028.7;;;4.8;100.0
73316;BME280;61545;53.726;-0.444;2023-04-02T19:58:32;1028.7;;;5.0;100.0
73316;BME280;61545;53.726;-0.444;2023-04-02T20:03:31;1028.8;;;4.8;100.0
73316;BME280;61545;53.726;-0.444;2023-04-02T20:08:31;1028.9;;;4.9;100.0
73316;BME280;61545;53.726;-0.444;2023-04-02T20:13:31;1028.9;;;4.9;100.0
73316;BME280;61545;53.726;-0.444;2023-04-02T20:18:31;1029.0;;;5.0;100.0
73316;BME280;61545;53.726;-0.444;2023-04-02T20:23:31;1029.0;;;4.9;100.0
73316;BME280;61545;53.726;-0.444;2023-04-02T20:28:31;1029.1;;;4.8;100.0
73316;BME280;61545;53.726;-0.444;2023-04-02T20:33:31;1029.1;;;4.8;100.0
73316;BME280;61545;53.726;-0.444;2023-04-02T20:38:31;1029.1;;;4.7;100.0
73316;BME280;61545;53.726;-0.444;2023-04-02T20:43:31;1029.1;;;4.7;100.0
73316;BME280;61545;53.726;-0.444;2023-04-02T20:48:33;1029.1;;;4.5;100.0
73316;BME280;61545;53.726;-0.444;2023-04-02T20:53:32;1029.2;;;4.5;100.0
73316;BME280;61545;53.726;-0.444;2023-04-02T20:58:31;1029.1;;;4.3;100.0
73316;BME280;61545;53.726;-0.444;2023-04-02T21:03:31;1029.2;;;4.3;100.0
73316;BME280;61545;53.726;-0.444;2023-04-02T21:08:31;1029.2;;;4.3;100.0
73316;BME280;61545;53.726;-0.444;2023-04-02T21:13:32;1029.3;;;4.3;100.0
73316;BME280;61545;53.726;-0.444;2023-04-02T21:18:31;1029.2;;;4.2;100.0
73316;BME280;61545;53.726;-0.444;2023-04-02T21:23:31;1029.2;;;4.2;100.0
73316;BME280;61545;53.726;-0.444;2023-04-02T21:28:32;1029.3;;;4.2;100.0
73316;BME280;61545;53.726;-0.444;2023-04-02T21:33:34;1029.4;;;4.1;100.0
73316;BME280;61545;53.726;-0.444;2023-04-02T21:38:31;1029.4;;;4.3;100.0
73316;BME280;61545;53.726;-0.444;2023-04-02T21:43:31;1029.3;;;4.2;100.0
73316;BME280;61545;53.726;-0.444;2023-04-02T21:48:31;1029.4;;;4.1;100.0
73316;BME280;61545;53.726;-0.444;2023-04-02T21:53:31;1029.3;;;4.2;100.0
73316;BME280;61545;53.726;-0.444;2023-04-02T21:58:31;1029.3;;;4.2;100.0
73316;BME280;61545;53.726;-0.444;2023-04-02T22:03:31;1029.3;;;4.2;100.0
73316;BME280;61545;53.726;-0.444;2023-04-02T22:08:31;1029.3;;;3.9;100.0
73316;BME280;61545;53.726;-0.444;2023-04-02T22:13:31;1029.3;;;3.9;100.0
73316;BME280;61545;53.726;-0.444;2023-04-02T22:18:31;1029.3;;;3.9;100.0
73316;BME280;61545;53.726;-0.444;2023-04-02T22:23:31;1029.2;;;4.0;100.0
73316;BME280;61545;53.726;-0.444;2023-04-02T22:28:31;1029.1;;;3.9;100.0
73316;BME280;61545;53.726;-0.444;2023-04-02T22:33:31;1029.1;;;3.9;100.0
73316;BME280;61545;53.726;-0.444;2023-04-02T22:38:31;1029.2;;;3.8;100.0
73316;BME280;61545;53.726;-0.444;2023-04-02T22:43:31;1029.2;;;3.8;100.0
73316;BME280;61545;53.726;-0.444;2023-04-02T22:48:31;1029.2;;;3.7;100.0
73316;BME280;61545;53.726;-0.444;2023-04-02T22:53:31;1029.2;;;3.6;100.0
73316;BME280;61545;53.726;-0.444;2023-04-02T22:58:31;1029.3;;;3.6;100.0
73316;BME280;61545;53.726;-0.444;2023-04-02T23:03:31;1029.2;;;3.5;100.0
73316;BME280;61545;53.726;-0.444;2023-04-02T23:08:31;1029.3;;;3.5;100.0
73316;BME280;61545;53.726;-0.444;2023-04-02T23:13:31;1029.2;;;3.4;100.0
73316;BME280;61545;53.726;-0.444;2023-04-02T23:18:31;1029.2;;;3.3;100.0
73316;BME280;61545;53.726;-0.444;2023-04-02T23:23:33;1029.2;;;3.3;100.0
73316;BME280;61545;53.726;-0.444;2023-04-02T23:28:31;1029.2;;;3.3;100.0
73316;BME280;61545;53.726;-0.444;2023-04-02T23:33:31;1029.2;;;3.2;100.0
73316;BME280;61545;53.726;-0.444;2023-04-02T23:38:31;1029.2;;;3.2;100.0
73316;BME280;61545;53.726;-0.444;2023-04-02T23:43:31;1029.2;;;3.2;100.0
73316;BME280;61545;53.726;-0.444;2023-04-02T23:48:31;1029.2;;;3.2;100.0
73316;BME280;61545;53.726;-0.444;2023-04-02T23:53:31;1029.2;;;3.1;100.0
73316;BME280;61545;53.726;-0.444;2023-04-02T23:58:31;1029.2;;;3.0;100.0
